MAPA DE AEROPUERTO

INFORMACIÓN METAR y TAF

METAR FOR EKVG
ADDS - METARS form results

(1252 UTC 26 February 2021)
Data provider http://aviationweather.gov/metar/data/
 
METAR text: EKVG 261250Z AUTO 17010KT 130V190 8000 OVC004/// 08/08 Q1019
Conditions at: EKVG (SORVAAG/VAGAR , DK) observed 1250 UTC 26 February 2021
Temperature: 8.0°C (46°F)
Dewpoint: 8.0°C (46°F) [RH = 100%]
Pressure (altimeter): 30.09 inches Hg (1019.0 mb)
Winds: from the S (170 degrees) at 12 MPH (10 knots; 5.1 m/s)
Visibility: 5 miles ( 8 km)
Ceiling: 400 feet AGL
Clouds: overcast cloud deck at 400 feet AGL
Weather: no significant weather observed at this time

METAR text: EKVG 261220Z AUTO 17010KT 5000 -RA BKN004/// 08/08 Q1019
Conditions at: EKVG (SORVAAG/VAGAR , DK) observed 1220 UTC 26 February 2021
Temperature: 8.0°C (46°F)
Dewpoint: 8.0°C (46°F) [RH = 100%]
Pressure (altimeter): 30.09 inches Hg (1019.0 mb)
Winds: from the S (170 degrees) at 12 MPH (10 knots; 5.1 m/s)
Visibility: 3 miles ( 5 km)
Ceiling: 400 feet AGL
Clouds: broken clouds at 400 feet AGL
Weather: -RA  (light rain)

Forecast for: EKVG (SORVAAG/VAGAR , DK)
Text: TAF EKVG 261126Z 2612/2621 19017KT 7000 -RADZ BKN010 OVC015
Forecast period: 1200 to 1600 UTC 26 February 2021
Forecast type: FROM: standard forecast or significant change
Winds: from the S (190 degrees) at 20 MPH (17 knots; 8.7 m/s)
Visibility: 4 miles (7 km)
Ceiling: 1000 feet AGL
Clouds: broken clouds at 1000 feet AGL
overcast cloud deck at 1500 feet AGL
Weather: -RA -DZ  (light rain, light drizzle)
Text: TEMPO 2612/2619 2500 DZ BR OVC004
Forecast period: 1200 to 1900 UTC 26 February 2021
Forecast type: TEMPORARY: The following changes expected for less than half the time period
Visibility: 1.55 miles (2.49 km)
Ceiling: 400 feet AGL
Clouds: overcast cloud deck at 400 feet AGL
Weather: DZ BR  (moderate drizzle, mist)
Text: BECMG 2616/2618 19018G28KT
Forecast period: 1600 to 1900 UTC 26 February 2021
Forecast type: BECOMING: Conditions expected to become as follows by 1800 UTC 26 February 2021
Winds: from the S (190 degrees) at 21 MPH (18 knots; 9.3 m/s)
gusting to 32 MPH (28 knots; 14.4 m/s)
Visibility: 4 miles (7 km)
Ceiling: 1000 feet AGL
Clouds: broken clouds at 1000 feet AGL
overcast cloud deck at 1500 feet AGL
Weather: -RA -DZ  (light rain, light drizzle)
Text: BECMG 2619/2621 2500 RADZ BR OVC004
Forecast period: 1900 to 2100 UTC 26 February 2021
Forecast type: BECOMING: Conditions expected to become as follows by 2100 UTC 26 February 2021
Winds: from the S (190 degrees) at 21 MPH (18 knots; 9.3 m/s)
gusting to 32 MPH (28 knots; 14.4 m/s)
Visibility: 1.55 miles (2.49 km)
Ceiling: 400 feet AGL
Clouds: overcast cloud deck at 400 feet AGL
Weather: RA DZ BR  (moderate rain, moderate drizzle, mist)